Arcadia, Indiana
Current Conditions -  °F | °C
As of 8:35 AM on Friday 19 Dec 2014 (Local Time) from KTYQ Reporting Station
Overcast Overcast  
Wind Chill: -8°   Ceiling: 2700
Heat Index: -4°   Visibility: 7mi
Dew Point: -7°   Wind: 6mph
Humidity: 82%   Direction: 350°N
Pressure: 30.27"   Gusts: NA
Location:  40.18°N, 86.02°W
Report Text: KTYQ 191335Z AUTO 35005KT 7SM OVC027 M04/M07 A3027 RMK AO2 T10401067
Loading
Personal Weather Stations






























Interactive Weather Map New forecast layout! Learn more

10-Day Weather Forecast

Advertisements
Track Severe Weather on mobile